Time;durP1;ratioP1;P1;durP2;ratioP2;P2;SDS_P1;SDS_P2;PMS_P1;PMS_P2;Temp;Humidity;BMP_temperature;BMP_pressure;BME280_temperature;BME280_humidity;BME280_pressure;Samples;Min_cycle;Max_cycle;Signal;HPM_P1;HPM_P2
2022/05/02 00:01:29;;;;;;;9.07;6.45;;;10.70;53.10;;;;;;4973475;28;20402;-81
2022/05/02 00:03:55;;;;;;;9.30;6.60;;;10.80;53.20;;;;;;4973448;28;20075;-80
2022/05/02 00:06:21;;;;;;;12.80;7.00;;;10.80;53.30;;;;;;4973539;28;20030;-79
2022/05/02 00:08:47;;;;;;;15.02;6.97;;;10.70;53.50;;;;;;4973891;28;20023;-79
2022/05/02 00:11:13;;;;;;;10.38;6.22;;;10.70;53.70;;;;;;4956271;28;20408;-80
2022/05/02 00:13:38;;;;;;;14.27;7.07;;;10.70;54.60;;;;;;4972224;28;20389;-78
2022/05/02 00:16:07;;;;;;;10.02;6.82;;;10.60;54.00;;;;;;4972911;28;20097;-79
2022/05/02 00:18:33;;;;;;;9.48;6.32;;;10.60;54.40;;;;;;4973288;28;20198;-78
2022/05/02 00:20:58;;;;;;;8.52;6.22;;;10.60;54.50;;;;;;4973028;28;20492;-78
2022/05/02 00:23:24;;;;;;;9.43;6.20;;;10.60;54.50;;;;;;4973207;28;20078;-78
2022/05/02 00:25:50;;;;;;;10.65;6.53;;;10.60;54.40;;;;;;4973064;28;20402;-78
2022/05/02 00:28:16;;;;;;;8.90;6.22;;;10.60;54.40;;;;;;4954718;28;20030;-78
2022/05/02 00:30:43;;;;;;;11.32;6.78;;;10.70;54.50;;;;;;4959376;28;20556;-79
2022/05/02 00:33:08;;;;;;;8.93;6.30;;;10.60;54.70;;;;;;4976629;28;20018;-77
2022/05/02 00:35:34;;;;;;;9.43;5.35;;;10.60;54.80;;;;;;4976671;28;20492;-77
2022/05/02 00:38:00;;;;;;;12.43;6.55;;;10.60;54.90;;;;;;4976594;28;20030;-78
2022/05/02 00:40:26;;;;;;;9.55;6.40;;;10.60;54.90;;;;;;4976616;28;20034;-79
2022/05/02 00:42:52;;;;;;;10.55;6.43;;;10.60;54.70;;;;;;4976506;28;20063;-79
2022/05/02 00:45:19;;;;;;;6.72;5.40;;;10.60;54.60;;;;;;4976050;28;20058;-79
2022/05/02 00:47:56;;;;;;;9.73;6.10;;;10.60;54.70;;;;;;4995627;28;20061;-79
2022/05/02 00:50:42;;;;;;;11.63;5.72;;;10.60;54.70;;;;;;4995943;28;20030;-79
2022/05/02 00:53:13;;;;;;;9.32;5.97;;;10.50;54.80;;;;;;4995695;28;20100;-78
2022/05/02 00:55:40;;;;;;;11.30;5.97;;;10.40;55.20;;;;;;4976327;28;20023;-78
2022/05/02 00:58:06;;;;;;;6.93;5.53;;;10.40;55.50;;;;;;4976185;28;20501;-78
2022/05/02 01:00:34;;;;;;;8.82;5.93;;;10.40;55.30;;;;;;4958283;28;20026;-80
2022/05/02 01:03:01;;;;;;;;;;;10.40;55.30;;;;;;4976697;28;20390;-80
2022/05/02 01:05:27;;;;;;;10.68;6.63;;;10.40;54.90;;;;;;4976242;28;19953;-79
2022/05/02 01:07:53;;;;;;;9.65;6.15;;;10.30;55.10;;;;;;4976096;28;20045;-79
2022/05/02 01:10:19;;;;;;;11.63;6.55;;;10.30;55.50;;;;;;4976023;28;20019;-78
2022/05/02 01:12:46;;;;;;;10.35;6.22;;;10.30;55.60;;;;;;4976317;28;20082;-79
2022/05/02 01:15:13;;;;;;;12.13;6.47;;;10.20;55.70;;;;;;4976346;28;20023;-77
2022/05/02 01:17:39;;;;;;;7.53;5.30;;;10.10;55.70;;;;;;4975168;28;20084;-78
2022/05/02 01:20:12;;;;;;;10.75;6.22;;;10.10;55.80;;;;;;4995286;28;20408;-78
2022/05/02 01:22:38;;;;;;;10.35;6.07;;;10.00;56.00;;;;;;4979628;28;20030;-77
2022/05/02 01:25:04;;;;;;;7.20;5.93;;;10.00;56.20;;;;;;4980107;28;20038;-78
2022/05/02 01:27:30;;;;;;;10.35;6.55;;;9.90;56.30;;;;;;4997592;28;20031;-79
2022/05/02 01:29:55;;;;;;;10.90;6.60;;;9.90;56.70;;;;;;4968233;28;20098;-80
2022/05/02 01:32:21;;;;;;;8.73;7.00;;;9.80;56.90;;;;;;4973977;28;20391;-81
2022/05/02 01:34:47;;;;;;;11.07;6.97;;;9.80;57.00;;;;;;4975649;28;20022;-81
2022/05/02 01:37:14;;;;;;;10.70;7.00;;;9.80;57.10;;;;;;4958428;28;20102;-80
2022/05/02 01:39:41;;;;;;;13.00;6.75;;;9.80;57.20;;;;;;4976175;28;20023;-79
2022/05/02 01:42:11;;;;;;;10.10;6.77;;;9.90;57.20;;;;;;4976609;28;20037;-80
2022/05/02 01:44:39;;;;;;;11.45;6.88;;;9.90;57.10;;;;;;4975651;28;20264;-80
2022/05/02 01:47:06;;;;;;;12.13;6.18;;;9.90;57.10;;;;;;4968775;28;20412;-81
2022/05/02 01:49:32;;;;;;;11.20;6.75;;;9.90;57.10;;;;;;4955818;28;20028;-80
2022/05/02 01:51:58;;;;;;;9.68;6.40;;;9.90;57.10;;;;;;4938976;29;20031;-79
2022/05/02 01:54:25;;;;;;;9.32;6.28;;;9.90;57.10;;;;;;4956303;29;20028;-80
2022/05/02 01:56:51;;;;;;;6.63;5.97;;;10.00;57.40;;;;;;4955828;29;20027;-80
2022/05/02 01:59:17;;;;;;;12.07;6.43;;;10.00;57.50;;;;;;4956010;29;20030;-80
2022/05/02 02:01:42;;;;;;;13.93;8.55;;;10.00;57.70;;;;;;4955995;29;20505;-80
2022/05/02 02:06:54;;;;;;;10.10;6.47;;;10.00;57.40;;;;;;4925834;29;20489;-79
2022/05/02 02:09:20;;;;;;;9.13;6.75;;;10.10;57.60;;;;;;4955853;29;20061;-78
2022/05/02 02:11:46;;;;;;;11.45;6.63;;;10.00;57.60;;;;;;4938923;29;20400;-79
2022/05/02 02:14:12;;;;;;;10.07;6.68;;;10.10;57.70;;;;;;4955895;29;20023;-79
2022/05/02 02:16:38;;;;;;;8.02;5.88;;;10.10;57.70;;;;;;4938572;29;20470;-79
2022/05/02 02:19:04;;;;;;;13.02;6.57;;;10.10;57.80;;;;;;4955505;29;20031;-78
2022/05/02 02:21:31;;;;;;;11.23;6.88;;;10.10;57.70;;;;;;4955102;28;20526;-77
2022/05/02 02:23:57;;;;;;;11.30;7.13;;;10.10;57.60;;;;;;4939385;29;20496;-78
2022/05/02 02:26:23;;;;;;;13.25;7.00;;;10.10;57.40;;;;;;4956266;29;20031;-79
2022/05/02 02:28:48;;;;;;;10.75;5.93;;;10.10;57.40;;;;;;4955713;29;20031;-79
2022/05/02 02:31:14;;;;;;;14.48;7.57;;;10.20;57.40;;;;;;4955309;29;20473;-80
2022/05/02 02:33:40;;;;;;;10.77;6.15;;;10.20;57.40;;;;;;4955506;29;20054;-78
2022/05/02 02:36:06;;;;;;;16.23;7.93;;;10.20;57.50;;;;;;4955137;29;20023;-77
2022/05/02 02:38:32;;;;;;;9.57;6.45;;;10.20;57.50;;;;;;4954692;28;20031;-77
2022/05/02 02:40:57;;;;;;;10.50;7.40;;;10.10;57.50;;;;;;4955338;29;20038;-78
2022/05/02 02:43:23;;;;;;;10.20;7.00;;;10.20;57.50;;;;;;4955083;29;20035;-79
2022/05/02 02:45:49;;;;;;;11.95;7.97;;;10.10;57.50;;;;;;4955134;29;20042;-78
2022/05/02 02:48:15;;;;;;;12.40;7.93;;;10.20;57.60;;;;;;4971391;28;20394;-79
2022/05/02 02:50:41;;;;;;;9.45;6.78;;;10.20;57.50;;;;;;4957004;28;20026;-77
2022/05/02 02:53:07;;;;;;;10.85;7.20;;;10.20;57.60;;;;;;4956381;28;20457;-77
2022/05/02 02:55:33;;;;;;;9.35;6.88;;;10.20;57.60;;;;;;4956217;28;20070;-79
2022/05/02 02:57:59;;;;;;;31.13;9.10;;;10.20;57.60;;;;;;4974516;28;20043;-77
2022/05/02 03:00:25;;;;;;;10.93;7.13;;;10.20;57.60;;;;;;4974962;28;20034;-79
2022/05/02 03:02:52;;;;;;;11.65;7.25;;;10.20;57.80;;;;;;4975022;28;20441;-79
2022/05/02 03:08:02;;;;;;;10.70;7.40;;;10.20;57.60;;;;;;4974147;28;20059;-78
2022/05/02 03:10:28;;;;;;;12.77;7.28;;;10.30;58.30;;;;;;4956795;28;20081;-79
2022/05/02 03:12:55;;;;;;;8.82;7.15;;;10.30;57.90;;;;;;4972740;28;20026;-79
2022/05/02 03:15:21;;;;;;;12.13;7.17;;;10.30;57.60;;;;;;4993440;28;20030;-78
2022/05/02 03:17:47;;;;;;;13.68;7.50;;;10.30;57.50;;;;;;4993170;28;20030;-80
2022/05/02 03:20:13;;;;;;;10.95;7.60;;;10.30;57.60;;;;;;4975802;28;20126;-79
2022/05/02 03:22:40;;;;;;;10.40;7.57;;;10.30;57.70;;;;;;4993374;28;20376;-79
2022/05/02 03:25:06;;;;;;;11.55;8.38;;;10.30;57.90;;;;;;4993481;28;20073;-79
2022/05/02 03:27:32;;;;;;;13.67;8.10;;;10.30;58.10;;;;;;4999224;28;20109;-78
2022/05/02 03:29:58;;;;;;;12.43;8.00;;;10.40;58.00;;;;;;4988828;28;20527;-78
2022/05/02 03:32:24;;;;;;;13.20;8.07;;;10.40;58.00;;;;;;4972870;28;20030;-79
2022/05/02 03:34:49;;;;;;;10.40;7.30;;;10.40;58.00;;;;;;4956629;28;20436;-78
2022/05/02 03:37:16;;;;;;;11.25;7.78;;;10.40;58.00;;;;;;4973883;28;20046;-80
2022/05/02 03:39:41;;;;;;;13.95;7.80;;;10.40;58.10;;;;;;4956269;28;20023;-79
2022/05/02 03:42:08;;;;;;;14.25;8.30;;;10.50;58.20;;;;;;4974125;28;20029;-79
2022/05/02 03:44:33;;;;;;;11.43;7.50;;;10.50;58.20;;;;;;4973648;28;20035;-79
2022/05/02 03:46:59;;;;;;;12.40;8.18;;;10.60;58.00;;;;;;4972749;28;20050;-80
2022/05/02 03:49:25;;;;;;;9.68;8.15;;;10.70;58.00;;;;;;4973245;28;20114;-79
2022/05/02 03:51:51;;;;;;;10.77;8.00;;;10.70;57.90;;;;;;4973650;28;20022;-79
2022/05/02 03:54:16;;;;;;;12.57;7.88;;;10.70;57.70;;;;;;4973782;28;20023;-78
2022/05/02 03:56:42;;;;;;;14.18;7.40;;;10.80;57.70;;;;;;4973409;28;20106;-77
2022/05/02 03:59:08;;;;;;;13.23;8.32;;;11.00;57.50;;;;;;4973466;28;20082;-79
2022/05/02 04:01:36;;;;;;;16.00;8.00;;;11.10;56.90;;;;;;4956124;28;20446;-79
2022/05/02 04:04:03;;;;;;;9.23;7.28;;;11.10;56.30;;;;;;4978673;28;20078;-78
2022/05/02 04:06:29;;;;;;;10.55;7.28;;;11.10;55.90;;;;;;4961762;29;20552;-78
2022/05/02 04:08:55;;;;;;;11.15;7.18;;;11.10;55.80;;;;;;4957898;29;20035;-79
2022/05/02 04:11:20;;;;;;;13.02;8.63;;;11.10;55.70;;;;;;4957859;29;20027;-81
2022/05/02 04:13:46;;;;;;;12.75;7.40;;;11.10;55.50;;;;;;4957759;29;20023;-80
2022/05/02 04:16:13;;;;;;;10.30;6.50;;;11.20;55.90;;;;;;4957589;29;20023;-79
2022/05/02 04:18:40;;;;;;;7.53;6.45;;;11.20;55.10;;;;;;4957804;29;20031;-80
2022/05/02 04:21:06;;;;;;;9.50;6.75;;;11.20;55.10;;;;;;4961707;28;20098;-79
2022/05/02 04:23:32;;;;;;;10.70;7.43;;;11.20;54.80;;;;;;4976855;28;20109;-78
2022/05/02 04:25:57;;;;;;;9.25;7.07;;;11.10;54.80;;;;;;4959448;28;20039;-80
2022/05/02 04:28:23;;;;;;;11.38;7.38;;;11.20;55.00;;;;;;4959670;28;20038;-78
2022/05/02 04:30:49;;;;;;;9.30;6.47;;;11.20;54.90;;;;;;4976847;28;20473;-78
2022/05/02 04:33:15;;;;;;;10.13;7.28;;;11.30;54.80;;;;;;4976795;28;20464;-77
2022/05/02 04:35:41;;;;;;;9.52;7.32;;;11.40;54.30;;;;;;4976783;28;20023;-79
2022/05/02 04:38:07;;;;;;;10.07;7.22;;;11.50;54.10;;;;;;4975599;28;20401;-77
2022/05/02 04:40:33;;;;;;;11.52;6.75;;;11.50;53.50;;;;;;4976606;28;20046;-78
2022/05/02 04:42:58;;;;;;;11.73;6.88;;;11.50;53.70;;;;;;4976515;28;20031;-78
2022/05/02 04:45:24;;;;;;;13.65;6.97;;;11.50;53.50;;;;;;4976314;28;20070;-79
2022/05/02 04:47:50;;;;;;;9.77;7.03;;;11.60;53.60;;;;;;4976229;28;20051;-78
2022/05/02 04:50:16;;;;;;;9.52;6.55;;;11.60;53.20;;;;;;4976314;28;20065;-78
2022/05/02 04:52:42;;;;;;;7.18;6.13;;;11.60;52.90;;;;;;4975140;28;20587;-78
2022/05/02 04:55:08;;;;;;;9.93;6.32;;;11.60;52.40;;;;;;4995336;28;20800;-78
2022/05/02 04:57:34;;;;;;;10.40;6.45;;;11.60;52.40;;;;;;4995491;28;20134;-77
2022/05/02 05:00:00;;;;;;;10.73;7.28;;;11.70;52.30;;;;;;4995604;28;20025;-78
2022/05/02 05:02:26;;;;;;;9.00;6.28;;;11.80;51.70;;;;;;4995610;28;20030;-77
2022/05/02 05:04:51;;;;;;;10.48;6.60;;;11.80;51.60;;;;;;4995867;28;20022;-78
2022/05/02 05:07:17;;;;;;;9.13;6.57;;;11.80;51.90;;;;;;4995650;28;20036;-78
2022/05/02 05:09:43;;;;;;;16.08;7.10;;;12.00;51.60;;;;;;4982980;28;20500;-79
2022/05/02 05:12:36;;;;;;;13.35;7.53;;;12.10;51.90;;;;;;4975996;28;20483;-79
2022/05/02 05:18:41;;;;;;;8.32;5.45;;;12.70;50.60;;;;;;4975758;28;20105;-79
2022/05/02 05:21:20;;;;;;;10.93;6.03;;;13.00;49.10;;;;;;4992461;28;20477;-78
2022/05/02 05:24:03;;;;;;;8.60;6.13;;;13.40;49.20;;;;;;4992117;28;20022;-81
2022/05/02 05:27:08;;;;;;;13.50;7.55;;;13.90;47.90;;;;;;4975802;28;20023;-79
2022/05/02 05:30:01;;;;;;;13.05;6.53;;;14.90;47.40;;;;;;4990563;28;20038;-79
2022/05/02 05:32:54;;;;;;;8.77;6.45;;;15.70;45.10;;;;;;4980367;28;20027;-77
2022/05/02 05:35:52;;;;;;;9.05;6.15;;;16.30;44.20;;;;;;4976509;28;20033;-80
2022/05/02 05:38:33;;;;;;;10.00;6.55;;;16.80;43.10;;;;;;4958152;28;20053;-78
2022/05/02 05:41:18;;;;;;;9.88;5.40;;;17.90;41.30;;;;;;4977222;28;20485;-80
2022/05/02 05:43:56;;;;;;;8.50;5.80;;;19.60;39.20;;;;;;4975692;28;20027;-80
2022/05/02 05:46:46;;;;;;;11.88;5.28;;;20.60;35.60;;;;;;4975143;28;20036;-80
2022/05/02 05:49:26;;;;;;;7.47;5.00;;;21.20;34.60;;;;;;4956574;28;20382;-79
2022/05/02 05:52:10;;;;;;;8.63;4.10;;;22.40;33.00;;;;;;4975345;28;20027;-79
2022/05/02 05:54:48;;;;;;;5.75;3.60;;;23.60;32.10;;;;;;4975122;28;20019;-80
2022/05/02 05:57:32;;;;;;;7.82;4.13;;;24.00;30.40;;;;;;4975085;28;20094;-79
2022/05/02 06:00:11;;;;;;;6.25;4.15;;;24.60;30.60;;;;;;4975481;28;20022;-81
2022/05/02 06:03:14;;;;;;;8.50;3.90;;;25.50;29.10;;;;;;4975328;28;20046;-79
2022/05/02 06:05:43;;;;;;;4.22;3.28;;;25.40;28.70;;;;;;4957113;28;20340;-79
2022/05/02 06:08:11;;;;;;;6.47;3.10;;;25.90;28.00;;;;;;4975574;28;20093;-78
2022/05/02 06:10:39;;;;;;;6.05;3.63;;;26.60;27.50;;;;;;4975633;28;20027;-80
2022/05/02 06:13:05;;;;;;;6.70;3.25;;;26.80;27.20;;;;;;4958834;28;20420;-80
2022/05/02 06:18:27;;;;;;;7.47;2.38;;;27.60;26.30;;;;;;4976952;28;20094;-79
2022/05/02 06:20:59;;;;;;;4.95;2.25;;;27.60;25.10;;;;;;4990266;28;20031;-79
2022/05/02 06:23:27;;;;;;;3.80;2.10;;;27.60;25.20;;;;;;4938393;29;20027;-80
2022/05/02 06:25:55;;;;;;;4.97;1.90;;;28.40;25.00;;;;;;4986883;28;20070;-81
2022/05/02 06:28:26;;;;;;;2.80;1.70;;;28.80;24.50;;;;;;4976135;28;20496;-79
2022/05/02 06:30:55;;;;;;;4.00;2.17;;;28.50;24.00;;;;;;4980371;28;20058;-78
2022/05/02 06:33:23;;;;;;;2.95;2.13;;;28.40;24.10;;;;;;4974540;28;20027;-79
2022/05/02 06:36:19;;;;;;;5.82;2.67;;;28.80;24.50;;;;;;4957454;28;20034;-81
2022/05/02 06:38:53;;;;;;;3.15;2.22;;;28.90;24.10;;;;;;4973333;28;20038;-80
2022/05/02 06:41:57;;;;;;;5.05;2.50;;;28.20;24.30;;;;;;4974567;28;20023;-81
2022/05/02 06:44:40;;;;;;;4.50;2.38;;;28.60;24.80;;;;;;4948089;28;20039;-79
2022/05/02 06:47:31;;;;;;;10.00;2.30;;;29.20;24.20;;;;;;4974464;28;20054;-79
2022/05/02 06:50:02;;;;;;;3.55;2.50;;;29.80;24.00;;;;;;4975177;28;20029;-82
2022/05/02 06:52:40;;;;;;;7.32;2.00;;;30.20;23.70;;;;;;4978467;28;20034;-80
2022/05/02 06:55:16;;;;;;;5.15;2.30;;;30.50;23.80;;;;;;4975969;28;20035;-79
2022/05/02 06:57:56;;;;;;;7.07;2.42;;;31.20;23.70;;;;;;4958216;28;20039;-79
2022/05/02 07:00:22;;;;;;;8.68;3.08;;;31.70;23.40;;;;;;4974283;28;20027;-79
2022/05/02 07:03:16;;;;;;;3.53;2.38;;;31.30;23.20;;;;;;4973914;28;20423;-78
2022/05/02 07:05:57;;;;;;;3.10;2.38;;;30.70;23.60;;;;;;4991211;28;20046;-79
2022/05/02 07:08:28;;;;;;;5.10;2.50;;;30.90;23.60;;;;;;4992719;28;20030;-79
2022/05/02 07:11:18;;;;;;;7.50;2.97;;;31.70;23.60;;;;;;4990023;28;20105;-82
2022/05/02 07:14:05;;;;;;;4.72;2.83;;;31.50;23.80;;;;;;4972627;28;20031;-81
2022/05/02 07:16:36;;;;;;;4.13;2.53;;;31.50;23.60;;;;;;4982106;28;20114;-80
2022/05/02 07:19:11;;;;;;;4.22;2.00;;;31.10;23.00;;;;;;4983498;28;20025;-78
2022/05/02 07:21:53;;;;;;;3.92;2.65;;;30.80;22.90;;;;;;4973676;28;20110;-78
2022/05/02 07:24:44;;;;;;;4.32;2.33;;;31.30;23.40;;;;;;4973600;28;20051;-78
2022/05/02 07:27:32;;;;;;;3.58;2.70;;;32.70;23.20;;;;;;4967749;28;20054;-79
2022/05/02 07:30:00;;;;;;;4.85;2.10;;;33.40;22.70;;;;;;4973019;28;20480;-80
2022/05/02 07:32:32;;;;;;;5.50;1.92;;;33.00;22.10;;;;;;4984459;28;20445;-79
2022/05/02 07:34:59;;;;;;;2.97;2.20;;;31.90;21.90;;;;;;4958559;28;20030;-79
2022/05/02 07:37:31;;;;;;;3.08;2.20;;;31.30;22.30;;;;;;4959951;28;20485;-79
2022/05/02 07:39:59;;;;;;;5.07;2.38;;;31.10;22.20;;;;;;4974867;28;20030;-79
2022/05/02 07:42:29;;;;;;;5.38;2.08;;;31.40;22.60;;;;;;4956447;28;20420;-79
2022/05/02 07:44:56;;;;;;;4.57;2.22;;;32.40;22.40;;;;;;4973037;28;20109;-78
2022/05/02 07:47:25;;;;;;;2.47;1.88;;;33.50;22.10;;;;;;4973210;28;20070;-79
2022/05/02 07:49:56;;;;;;;2.75;1.52;;;33.80;21.60;;;;;;4973384;28;20046;-80
2022/05/02 07:52:25;;;;;;;2.67;1.80;;;33.10;21.60;;;;;;4973169;28;20042;-78
2022/05/02 07:54:52;;;;;;;4.28;1.70;;;32.70;21.40;;;;;;4973058;28;20030;-80
2022/05/02 07:57:20;;;;;;;2.38;1.73;;;32.80;21.60;;;;;;4973140;28;20041;-78
2022/05/02 07:59:50;;;;;;;5.20;1.83;;;33.10;21.70;;;;;;4973118;28;20465;-80
2022/05/02 08:02:18;;;;;;;3.85;1.80;;;33.40;21.70;;;;;;4973268;28;20062;-79
2022/05/02 08:04:45;;;;;;;3.75;2.10;;;34.20;21.50;;;;;;4973049;28;20033;-79
2022/05/02 08:07:35;;;;;;;2.88;1.70;;;34.90;21.30;;;;;;4972856;28;20102;-78
2022/05/02 08:10:38;;;;;;;5.95;4.07;;;34.70;21.30;;;;;;4988403;28;20023;-78
2022/05/02 08:13:26;;;;;;;2.60;1.80;;;33.40;21.30;;;;;;4980236;28;20027;-78
2022/05/02 08:16:21;;;;;;;4.22;1.52;;;32.20;21.50;;;;;;4972983;28;20110;-78
2022/05/02 08:18:53;;;;;;;4.35;1.80;;;32.50;21.70;;;;;;4971168;28;20086;-78
2022/05/02 08:21:38;;;;;;;4.75;1.90;;;31.00;21.40;;;;;;4955310;28;20070;-77
2022/05/02 08:27:32;;;;;;;4.57;1.85;;;33.20;21.90;;;;;;4958642;28;20087;-78
2022/05/02 08:30:09;;;;;;;6.63;2.13;;;32.30;21.20;;;;;;4960230;28;20031;-78
2022/05/02 08:33:07;;;;;;;3.50;1.55;;;29.80;21.50;;;;;;4972720;28;20059;-78
2022/05/02 08:35:59;;;;;;;2.70;1.63;;;28.20;22.80;;;;;;4969937;28;20034;-79
2022/05/02 08:38:42;;;;;;;3.97;2.03;;;28.00;22.80;;;;;;4988562;28;20031;-79
2022/05/02 08:41:08;;;;;;;6.30;1.67;;;27.80;22.60;;;;;;4992071;28;20114;-77
2022/05/02 08:44:00;;;;;;;1.83;1.45;;;27.00;22.80;;;;;;4982915;28;20151;-78
2022/05/02 08:46:48;;;;;;;3.55;1.70;;;25.60;22.90;;;;;;4972658;28;20049;-77
2022/05/02 08:49:38;;;;;;;2.67;1.85;;;23.90;23.40;;;;;;4955413;28;20033;-78
2022/05/02 08:52:35;;;;;;;4.35;2.08;;;22.60;24.30;;;;;;4976314;28;20038;-79
2022/05/02 08:55:14;;;;;;;4.22;2.00;;;21.50;24.90;;;;;;4986370;28;20039;-78
2022/05/02 08:57:46;;;;;;;3.97;2.05;;;20.70;26.10;;;;;;4978057;28;20510;-79
2022/05/02 09:01:09;;;;;;;2.78;1.98;;;20.50;26.60;;;;;;4995690;28;20026;-79
2022/05/02 09:04:11;;;;;;;3.15;1.88;;;20.60;26.70;;;;;;4935436;29;20031;-78
2022/05/02 09:06:50;;;;;;;2.97;1.92;;;23.50;25.60;;;;;;4934930;29;20091;-78
2022/05/02 09:09:42;;;;;;;9.82;2.13;;;26.50;24.00;;;;;;4978517;28;20044;-77
2022/05/02 09:12:22;;;;;;;2.88;1.50;;;28.80;23.20;;;;;;4995338;28;20028;-82
2022/05/02 09:15:21;;;;;;;2.42;1.48;;;30.80;22.10;;;;;;4995521;28;20769;-80
2022/05/02 09:18:08;;;;;;;2.10;1.35;;;31.40;21.60;;;;;;4995410;28;20113;-81
2022/05/02 09:20:39;;;;;;;;;;;31.20;21.10;;;;;;4970499;28;20087;-80
2022/05/02 09:23:34;;;;;;;2.33;1.40;;;29.70;21.70;;;;;;4939637;29;19907;-80
2022/05/02 09:26:03;;;;;;;2.17;1.63;;;27.70;21.70;;;;;;4957299;28;20020;-81
2022/05/02 09:29:07;;;;;;;4.47;1.60;;;26.40;22.40;;;;;;4957390;29;20037;-81
2022/05/02 09:32:08;;;;;;;6.20;2.00;;;27.70;22.80;;;;;;4994103;28;20065;-88
2022/05/02 09:34:46;;;;;;;2.58;1.50;;;29.30;22.30;;;;;;4999182;28;20037;-88
2022/05/02 09:37:22;;;;;;;2.03;1.38;;;30.90;21.70;;;;;;4998984;28;20041;-88
2022/05/02 09:40:01;;;;;;;3.35;1.35;;;32.00;21.30;;;;;;4998174;28;20025;-90
2022/05/02 09:42:40;;;;;;;2.72;1.42;;;32.20;21.60;;;;;;4998025;28;20035;-82
2022/05/02 09:51:40;;;;;;;3.78;1.35;;;32.10;20.30;;;;;;4960469;29;20035;-85
2022/05/02 09:57:23;;;;;;;3.65;1.63;;;28.10;20.90;;;;;;4958248;29;20061;-86
2022/05/02 10:01:06;;;;;;;2.28;1.40;;;26.90;22.10;;;;;;4958436;29;20412;-86
2022/05/02 10:02:46;;;;;;;3.03;1.63;;;27.30;21.80;;;;;;4958398;29;20561;-87
2022/05/02 10:05:36;;;;;;;2.70;1.70;;;28.70;21.90;;;;;;4959644;29;20046;-85
2022/05/02 10:08:13;;;;;;;2.47;1.90;;;30.00;21.60;;;;;;4971554;28;20034;-84
2022/05/02 10:10:44;;;;;;;4.30;1.75;;;30.50;21.40;;;;;;4977945;28;20042;-83
2022/05/02 10:13:37;;;;;;;3.67;1.85;;;30.80;21.20;;;;;;4960366;28;20114;-88
2022/05/02 10:16:15;;;;;;;5.95;1.83;;;29.80;21.40;;;;;;4976778;28;20022;-87
2022/05/02 10:18:56;;;;;;;2.38;1.73;;;29.50;21.90;;;;;;4977525;28;20038;-85
2022/05/02 10:21:23;;;;;;;3.65;1.70;;;29.50;21.40;;;;;;4976250;28;20026;-87
2022/05/02 10:24:07;;;;;;;2.85;1.77;;;28.20;21.70;;;;;;4976334;28;20027;-87
2022/05/02 10:26:55;;;;;;;3.83;2.10;;;26.60;22.20;;;;;;4980332;28;20031;-87
2022/05/02 10:29:44;;;;;;;4.03;1.98;;;25.10;22.80;;;;;;4989880;28;20050;-84
2022/05/02 10:32:16;;;;;;;2.70;1.95;;;23.60;23.60;;;;;;4969108;28;20027;-86
2022/05/02 10:34:46;;;;;;;2.92;1.83;;;22.20;24.40;;;;;;4978847;28;20022;-84
2022/05/02 10:37:15;;;;;;;5.22;2.40;;;21.40;25.00;;;;;;4975840;28;20102;-83
2022/05/02 10:39:50;;;;;;;6.05;1.80;;;20.80;25.60;;;;;;4975951;28;20042;-84
2022/05/02 10:42:19;;;;;;;3.63;2.15;;;20.40;25.70;;;;;;4978499;28;20090;-85
2022/05/02 10:44:49;;;;;;;3.50;2.15;;;20.00;26.20;;;;;;4978154;28;20019;-85
2022/05/02 10:47:19;;;;;;;3.60;2.30;;;19.70;26.50;;;;;;4965460;28;20047;-84
2022/05/02 10:50:10;;;;;;;7.03;2.42;;;19.50;27.10;;;;;;4961045;29;20465;-83
2022/05/02 10:52:48;;;;;;;5.20;2.00;;;19.30;26.90;;;;;;4957670;29;20126;-85
2022/05/02 10:55:31;;;;;;;8.27;2.55;;;19.00;27.20;;;;;;4939877;29;20061;-84
2022/05/02 10:58:08;;;;;;;3.85;2.45;;;18.90;27.70;;;;;;4974463;28;20066;-87
2022/05/02 11:01:01;;;;;;;6.80;2.00;;;18.90;27.30;;;;;;4967389;28;20019;-84
2022/05/02 11:03:48;;;;;;;5.72;2.65;;;18.70;27.00;;;;;;4939123;28;20133;-84
2022/05/02 11:06:38;;;;;;;6.72;2.60;;;18.40;27.60;;;;;;4993263;28;20113;-86
2022/05/02 11:09:08;;;;;;;8.45;3.22;;;18.00;27.80;;;;;;4988210;28;20053;-85
2022/05/02 11:11:54;;;;;;;3.70;2.63;;;17.90;28.10;;;;;;4985295;28;20031;-84
2022/05/02 11:14:43;;;;;;;3.72;2.63;;;17.80;28.00;;;;;;4976780;28;20027;-84
2022/05/02 11:17:26;;;;;;;6.25;2.53;;;17.70;28.10;;;;;;4980072;28;20034;-86
2022/05/02 11:20:42;;;;;;;4.28;2.40;;;17.50;28.30;;;;;;4971003;28;20031;-85
2022/05/02 11:23:36;;;;;;;3.33;2.10;;;17.60;28.70;;;;;;4959497;28;20396;-85
2022/05/02 11:26:10;;;;;;;5.78;2.38;;;17.70;28.50;;;;;;4974738;28;20038;-85
2022/05/02 11:28:39;;;;;;;5.80;2.38;;;17.80;28.40;;;;;;4980396;28;20022;-84
2022/05/02 11:31:40;;;;;;;7.80;3.33;;;18.00;28.40;;;;;;4978237;28;20027;-85
2022/05/02 11:34:36;;;;;;;4.57;2.55;;;18.20;28.40;;;;;;4974133;28;20101;-86
2022/05/02 11:37:06;;;;;;;4.13;2.60;;;18.30;27.90;;;;;;4974204;28;20065;-88
2022/05/02 11:39:55;;;;;;;4.43;2.45;;;18.20;27.90;;;;;;4963880;28;20394;-86
2022/05/02 11:42:28;;;;;;;3.53;2.95;;;18.30;28.10;;;;;;4957621;29;20047;-90
2022/05/02 11:45:13;;;;;;;8.40;2.60;;;18.40;27.90;;;;;;4957693;28;20178;-84
2022/05/02 11:47:57;;;;;;;5.15;2.80;;;18.50;27.80;;;;;;4976289;28;20078;-87
2022/05/02 11:50:26;;;;;;;5.22;2.35;;;18.70;28.00;;;;;;4981564;28;20022;-88
2022/05/02 11:53:01;;;;;;;4.07;2.33;;;18.70;27.70;;;;;;4997575;28;20030;-90
2022/05/02 11:55:31;;;;;;;6.45;2.67;;;18.50;27.60;;;;;;5006084;28;20022;-91
2022/05/02 11:58:23;;;;;;;2.88;2.08;;;18.40;27.60;;;;;;4992187;28;20067;-91
2022/05/02 12:01:02;;;;;;;4.13;2.20;;;18.40;27.60;;;;;;4986311;28;20026;-91
2022/05/02 12:03:53;;;;;;;5.22;2.28;;;18.50;28.00;;;;;;4997504;28;20022;-91
2022/05/02 12:06:36;;;;;;;5.43;2.45;;;18.60;27.70;;;;;;4997631;28;20038;-91
2022/05/02 12:09:07;;;;;;;3.90;2.30;;;18.80;27.80;;;;;;4950763;28;20027;-90
2022/05/02 12:11:55;;;;;;;4.65;2.67;;;18.70;27.50;;;;;;4960701;29;20035;-92
2022/05/02 12:14:22;;;;;;;3.78;2.40;;;18.40;27.60;;;;;;4944354;29;20020;-90
2022/05/02 12:17:10;;;;;;;6.10;3.00;;;18.10;27.90;;;;;;4958936;29;20031;-90
2022/05/02 12:19:37;;;;;;;5.55;3.05;;;17.90;28.50;;;;;;4968067;29;20102;-89
2022/05/02 12:22:08;;;;;;;8.93;2.72;;;18.00;28.50;;;;;;4964062;29;20493;-90
2022/05/02 12:24:38;;;;;;;4.38;2.50;;;17.90;28.50;;;;;;4963515;28;20038;-90
2022/05/02 12:27:08;;;;;;;5.65;2.47;;;17.80;28.90;;;;;;4980573;28;20022;-91
2022/05/02 12:29:36;;;;;;;3.83;2.22;;;17.90;28.70;;;;;;4963702;28;20052;-91
2022/05/02 12:32:07;;;;;;;4.53;2.58;;;17.90;28.80;;;;;;4963928;28;20063;-89
2022/05/02 12:34:38;;;;;;;6.38;2.45;;;18.00;28.80;;;;;;4964889;28;20609;-89
2022/05/02 12:37:31;;;;;;;10.75;3.00;;;18.10;28.90;;;;;;4984167;28;20043;-89
2022/05/02 12:40:04;;;;;;;5.35;2.55;;;18.00;28.90;;;;;;4980770;28;20019;-92
2022/05/02 12:42:44;;;;;;;5.25;2.28;;;18.00;29.30;;;;;;4976693;28;20062;-89
2022/05/02 12:45:15;;;;;;;3.50;2.58;;;17.90;29.20;;;;;;4973389;28;20029;-90
2022/05/02 12:47:57;;;;;;;3.75;2.22;;;17.90;29.40;;;;;;4985599;28;20043;-91
2022/05/02 12:50:28;;;;;;;4.13;2.85;;;17.80;29.20;;;;;;4983750;28;20026;-91
2022/05/02 12:53:02;;;;;;;4.35;2.20;;;17.50;29.40;;;;;;4965663;28;20037;-91
2022/05/02 12:55:34;;;;;;;5.40;3.30;;;17.30;29.80;;;;;;4982573;28;20033;-89
2022/05/02 13:00:49;;;;;;;5.65;2.80;;;17.50;30.40;;;;;;4983058;28;20478;-91
2022/05/02 13:03:15;;;;;;;4.40;2.63;;;17.60;30.00;;;;;;4964579;28;20031;-90
2022/05/02 13:06:07;;;;;;;7.07;3.20;;;17.70;30.10;;;;;;4983471;28;20019;-90
2022/05/02 13:08:36;;;;;;;8.13;4.35;;;17.80;29.90;;;;;;4965753;28;20075;-91
2022/05/02 13:11:15;;;;;;;6.30;3.08;;;17.70;30.00;;;;;;4967056;28;20031;-92
2022/05/02 13:13:50;;;;;;;7.50;2.60;;;17.60;30.00;;;;;;4983368;28;20019;-90
2022/05/02 13:16:26;;;;;;;7.60;3.05;;;17.70;30.50;;;;;;4962473;28;20033;-90
2022/05/02 13:18:55;;;;;;;5.07;2.88;;;17.80;30.50;;;;;;4963632;28;20050;-90
2022/05/02 13:21:21;;;;;;;3.25;2.60;;;17.70;30.30;;;;;;4964068;28;20096;-91
2022/05/02 13:23:55;;;;;;;9.27;3.03;;;17.60;30.30;;;;;;4991718;28;20019;-91
2022/05/02 13:26:37;;;;;;;4.25;2.55;;;17.50;30.50;;;;;;4995586;28;20046;-89
2022/05/02 13:29:09;;;;;;;7.40;3.42;;;17.50;30.80;;;;;;4963117;28;20133;-91
2022/05/02 13:31:35;;;;;;;5.68;2.65;;;17.50;30.80;;;;;;4981240;28;20030;-90
2022/05/02 13:34:05;;;;;;;4.65;2.33;;;17.30;31.20;;;;;;4967030;28;20057;-90
2022/05/02 13:36:42;;;;;;;4.38;2.72;;;17.30;31.20;;;;;;4981550;28;20019;-86
2022/05/02 13:39:19;;;;;;;5.63;2.95;;;17.30;31.40;;;;;;4987800;28;20023;-85
2022/05/02 13:42:06;;;;;;;4.30;3.00;;;17.40;31.50;;;;;;4959190;28;20089;-83
2022/05/02 13:45:01;;;;;;;7.40;3.25;;;17.40;32.00;;;;;;4963199;28;20025;-86
2022/05/02 13:47:41;;;;;;;4.57;2.67;;;17.20;32.10;;;;;;4986934;28;20058;-86
2022/05/02 13:50:12;;;;;;;5.80;2.95;;;17.10;32.50;;;;;;4976509;28;20026;-84